This is the latest recevied weather packets stored in our database for station/object WX3I. If no packets are shown the sender has not sent any weather packets the latest 10 day(s).
| Time | Temp. | Humidity | Pressure | Rain* | Wind** | Luminosity | Snow |
|---|---|---|---|---|---|---|---|
| 1777449305 | 11.11° C | 62% | 1017.4 hPa | 0 mm | - | 0 W/m² | - |
| 1777445704 | 11.67° C | 61% | 1018.2 hPa | 0 mm | - | 0 W/m² | - |
| 1777445405 | 11.67° C | 60% | 1018.4 hPa | 0 mm | - | 0 W/m² | - |
| 1777444505 | 11.67° C | 60% | 1018.5 hPa | 0 mm | - | 0 W/m² | - |
| 1777441504 | 12.22° C | 61% | 1019 hPa | 0 mm | - | 0 W/m² | - |
| 1777440005 | 12.22° C | 61% | 1018.9 hPa | 0 mm | - | 0 W/m² | - |
| 1777439704 | 12.22° C | 61% | 1018.9 hPa | 0 mm | - | 0 W/m² | - |
| 1777439105 | 12.22° C | 61% | 1018.9 hPa | 0 mm | - | 0 W/m² | - |
| 1777433405 | 12.78° C | 62% | 1019.8 hPa | 0 mm | - | 0 W/m² | - |
| 1777425304 | 13.33° C | 62% | 1019.1 hPa | 0 mm | - | 0 W/m² | - |
| 1777424104 | 13.33° C | 62% | 1019.2 hPa | 0 mm | - | 0 W/m² | - |
| 1777423205 | 13.33° C | 64% | 1019.6 hPa | 0 mm | - | 0 W/m² | - |
| 1777419904 | 13.89° C | 61% | 1019.7 hPa | 0 mm | - | 18 W/m² | - |
| 1777416905 | 13.89° C | 57% | 1019.6 hPa | 0 mm | - | 149 W/m² | - |
| 1777414204 | 14.44° C | 57% | 1019.9 hPa | 0 mm | - | 236 W/m² | - |
| 1777413004 | 14.44° C | 56% | 1019.9 hPa | 0 mm | - | 373 W/m² | - |
| 1777412704 | 14.44° C | 55% | 1019.9 hPa | 0 mm | - | 427 W/m² | - |
| 1777412405 | 14.44° C | 56% | 1019.9 hPa | 0 mm | - | 433 W/m² | - |
| 1777411504 | 14.44° C | 55% | 1019.9 hPa | 0 mm | - | 503 W/m² | - |
| 1777410304 | 14.44° C | 55% | 1019.9 hPa | 0 mm | - | 646 W/m² | - |
| 1777408505 | 15° C | 52% | 1020 hPa | 0 mm | - | 761 W/m² | - |
| 1777407904 | 14.44° C | 53% | 1020 hPa | 0 mm | - | 798 W/m² | - |
| 1777405804 | 14.44° C | 54% | 1020.4 hPa | 0 mm | - | 919 W/m² | - |
| 1777402504 | 15° C | 49% | 1021.2 hPa | 0 mm | - | 1069 W/m² | - |
| 1777400404 | 15° C | 49% | 1021.4 hPa | 0 mm | - | 1131 W/m² | - |
* Rain latest hour (hover to see other rain measurements)
** Current wind speed in m/s (hover to see current wind gust speed)